Time;durP1;ratioP1;P1;durP2;ratioP2;P2;SDS_P1;SDS_P2;PMS_P1;PMS_P2;Temp;Humidity;BMP_temperature;BMP_pressure;BME280_temperature;BME280_humidity;BME280_pressure;Samples;Min_cycle;Max_cycle;Signal;HPM_P1;HPM_P2
2023/10/15 00:00:13;;;;;;;6.47;1.88;;;10.70;99.90;;;;;;5056704;28;20020;-77
2023/10/15 00:02:43;;;;;;;1.25;1.05;;;10.70;99.90;;;;;;5056801;28;20103;-77
2023/10/15 00:05:10;;;;;;;6.88;1.02;;;10.70;99.90;;;;;;5073649;28;20020;-77
2023/10/15 00:07:36;;;;;;;1.90;0.80;;;10.60;99.90;;;;;;5073076;28;20024;-77
2023/10/15 00:10:01;;;;;;;8.52;1.38;;;10.60;99.90;;;;;;5073200;28;20388;-78
2023/10/15 00:12:27;;;;;;;4.40;1.10;;;10.60;99.90;;;;;;5073449;28;20039;-78
2023/10/15 00:14:53;;;;;;;3.58;1.33;;;10.60;99.90;;;;;;5055115;28;20043;-78
2023/10/15 00:17:19;;;;;;;0.75;0.55;;;10.60;99.90;;;;;;5055523;28;20221;-77
2023/10/15 00:19:44;;;;;;;3.13;1.02;;;10.60;99.90;;;;;;5073969;28;20024;-78
2023/10/15 00:22:10;;;;;;;5.28;1.05;;;10.50;99.90;;;;;;5056086;28;20032;-78
2023/10/15 00:24:37;;;;;;;4.53;1.50;;;10.50;99.90;;;;;;5073984;28;20037;-78
2023/10/15 00:27:03;;;;;;;0.88;0.88;;;10.50;99.90;;;;;;5073347;28;20024;-78
2023/10/15 00:29:29;;;;;;;11.00;1.50;;;10.50;99.90;;;;;;5055195;28;20024;-78
2023/10/15 00:31:54;;;;;;;0.95;0.88;;;10.50;99.90;;;;;;5073241;28;20021;-78
2023/10/15 00:34:20;;;;;;;7.88;2.13;;;10.40;99.90;;;;;;5055316;28;20086;-78
2023/10/15 00:36:48;;;;;;;3.55;1.05;;;10.50;99.90;;;;;;5055653;28;20406;-78
2023/10/15 00:39:22;;;;;;;3.35;1.20;;;10.50;99.90;;;;;;5056299;28;20016;-77
2023/10/15 00:41:49;;;;;;;4.85;1.23;;;10.40;99.90;;;;;;5074111;28;20104;-78
2023/10/15 00:44:16;;;;;;;10.07;2.35;;;10.40;99.90;;;;;;5073702;28;20027;-77
2023/10/15 00:46:45;;;;;;;4.43;1.65;;;10.40;99.90;;;;;;5056002;28;20025;-78
2023/10/15 00:49:13;;;;;;;6.68;1.38;;;10.40;99.90;;;;;;5074347;28;20017;-78
2023/10/15 00:51:41;;;;;;;3.35;1.48;;;10.40;99.90;;;;;;5055966;28;20100;-78
2023/10/15 00:54:12;;;;;;;5.05;1.83;;;10.40;99.90;;;;;;5073821;28;20100;-78
2023/10/15 00:56:38;;;;;;;2.20;1.00;;;10.40;99.90;;;;;;5074330;28;20083;-77
2023/10/15 00:59:08;;;;;;;1.00;0.88;;;10.40;99.90;;;;;;5056400;28;20456;-77
2023/10/15 01:01:39;;;;;;;3.83;1.15;;;10.50;99.90;;;;;;5057543;28;20438;-78
2023/10/15 01:04:10;;;;;;;10.13;1.33;;;10.40;99.90;;;;;;5075107;28;20025;-77
2023/10/15 01:06:37;;;;;;;1.60;0.98;;;10.50;99.90;;;;;;5057550;28;20039;-77
2023/10/15 01:09:27;;;;;;;1.48;0.90;;;10.50;99.90;;;;;;5056537;28;20028;-78
2023/10/15 01:11:55;;;;;;;2.28;1.38;;;10.50;99.90;;;;;;5058082;28;20060;-77
2023/10/15 01:14:31;;;;;;;0.70;0.70;;;10.50;99.90;;;;;;5075788;28;20032;-78
2023/10/15 01:16:59;;;;;;;3.33;1.02;;;10.40;99.90;;;;;;5075850;28;20032;-77
2023/10/15 01:19:33;;;;;;;0.57;0.57;;;10.40;99.90;;;;;;5058357;28;20032;-78
2023/10/15 01:22:04;;;;;;;1.88;0.93;;;10.40;99.90;;;;;;5058065;28;20021;-77
2023/10/15 01:24:36;;;;;;;3.58;1.35;;;10.30;99.90;;;;;;5075794;28;20053;-78
2023/10/15 01:27:10;;;;;;;1.58;0.80;;;10.30;99.90;;;;;;5058048;28;20024;-77
2023/10/15 01:29:44;;;;;;;3.60;1.00;;;10.30;99.90;;;;;;5075859;28;20016;-78
2023/10/15 01:32:13;;;;;;;7.38;1.27;;;10.30;99.90;;;;;;5075614;28;20385;-78
2023/10/15 01:34:45;;;;;;;3.80;1.05;;;10.20;99.90;;;;;;5075646;28;20032;-78
2023/10/15 01:37:15;;;;;;;2.22;0.77;;;10.30;99.90;;;;;;5057553;28;20043;-77
2023/10/15 01:39:47;;;;;;;3.47;0.98;;;10.30;99.90;;;;;;5075723;28;20021;-77
2023/10/15 01:42:34;;;;;;;8.00;0.90;;;10.30;99.90;;;;;;5075660;28;20078;-77
2023/10/15 01:50:32;;;;;;;5.32;1.35;;;10.40;99.90;;;;;;5075706;28;20105;-77
2023/10/15 01:53:04;;;;;;;4.15;1.17;;;10.40;99.90;;;;;;5076286;28;20025;-77
2023/10/15 01:55:30;;;;;;;6.60;1.85;;;10.40;99.90;;;;;;5058544;28;20047;-77
2023/10/15 01:58:00;;;;;;;1.23;0.70;;;10.30;99.90;;;;;;5076254;28;20032;-78
2023/10/15 02:03:00;;;;;;;3.03;1.27;;;10.30;99.90;;;;;;5076101;28;20115;-77
2023/10/15 02:05:40;;;;;;;7.40;1.83;;;10.30;99.90;;;;;;5058249;28;20027;-77
2023/10/15 02:08:07;;;;;;;1.42;0.82;;;10.40;99.90;;;;;;5075956;28;20031;-77
2023/10/15 02:10:35;;;;;;;4.63;1.17;;;10.30;99.90;;;;;;5076073;28;20021;-77
2023/10/15 02:13:04;;;;;;;3.95;1.40;;;10.40;99.90;;;;;;5075982;28;20044;-77
2023/10/15 02:15:33;;;;;;;4.63;0.82;;;10.30;99.90;;;;;;5076340;28;20028;-77
2023/10/15 02:17:59;;;;;;;3.42;1.30;;;10.40;99.90;;;;;;5057431;28;20527;-77
2023/10/15 02:23:11;;;;;;;1.75;0.77;;;10.40;99.90;;;;;;5079622;28;20381;-78
2023/10/15 02:25:44;;;;;;;4.28;1.15;;;10.40;99.90;;;;;;5061874;28;20439;-77
2023/10/15 02:28:10;;;;;;;1.80;1.33;;;10.40;99.90;;;;;;5059796;28;20024;-78
2023/10/15 02:30:39;;;;;;;1.42;0.90;;;10.30;99.90;;;;;;5059309;28;20024;-77
2023/10/15 02:33:06;;;;;;;;;;;10.40;99.90;;;;;;5058907;28;20020;-77
2023/10/15 02:35:53;;;;;;;3.10;1.17;;;10.30;99.90;;;;;;5075986;28;19931;-77
2023/10/15 02:38:19;;;;;;;1.85;0.95;;;10.30;99.90;;;;;;5076089;28;20032;-77
2023/10/15 02:43:29;;;;;;;1.10;0.90;;;10.30;99.90;;;;;;5075636;28;20495;-77
2023/10/15 02:45:56;;;;;;;1.65;0.80;;;10.20;99.90;;;;;;5056933;28;20028;-78
2023/10/15 02:48:22;;;;;;;2.33;0.70;;;10.10;99.90;;;;;;5077399;28;20024;-77
2023/10/15 02:50:58;;;;;;;4.15;1.25;;;10.10;99.90;;;;;;5060353;28;20028;-77
2023/10/15 02:53:26;;;;;;;3.05;1.50;;;10.30;99.90;;;;;;5060581;28;20024;-77
2023/10/15 02:55:52;;;;;;;2.40;1.23;;;9.90;99.90;;;;;;5060530;28;20108;-77
2023/10/15 02:58:22;;;;;;;4.43;1.17;;;9.80;99.90;;;;;;5078631;28;20109;-77
2023/10/15 03:00:51;;;;;;;5.00;0.70;;;9.80;99.90;;;;;;5077946;28;20023;-77
2023/10/15 03:03:23;;;;;;;8.35;2.42;;;9.70;99.90;;;;;;5059474;28;20035;-77
2023/10/15 03:05:49;;;;;;;2.20;1.10;;;9.60;99.90;;;;;;5077043;28;20019;-77
2023/10/15 03:08:20;;;;;;;1.65;0.82;;;9.50;99.90;;;;;;5078340;28;20095;-77
2023/10/15 03:10:47;;;;;;;2.45;0.80;;;9.60;99.90;;;;;;5078021;28;20052;-77
2023/10/15 03:13:18;;;;;;;3.38;1.08;;;9.60;99.90;;;;;;5078038;28;20020;-77
2023/10/15 03:15:49;;;;;;;5.47;1.42;;;9.70;99.90;;;;;;5078078;28;20099;-77
2023/10/15 03:18:23;;;;;;;3.80;1.10;;;9.70;99.90;;;;;;5077939;28;20035;-77
2023/10/15 03:21:00;;;;;;;4.70;1.63;;;9.70;99.90;;;;;;5058910;28;20028;-77
2023/10/15 03:23:26;;;;;;;1.23;1.13;;;9.80;99.90;;;;;;5074410;28;20072;-78
2023/10/15 03:25:58;;;;;;;2.45;1.05;;;9.80;99.90;;;;;;5076960;28;20365;-77
2023/10/15 03:28:24;;;;;;;3.40;1.10;;;9.80;99.90;;;;;;5076117;28;20048;-77
2023/10/15 03:30:54;;;;;;;4.55;1.55;;;9.80;99.90;;;;;;5059295;28;20397;-77
2023/10/15 03:33:22;;;;;;;2.15;1.40;;;9.80;99.90;;;;;;5058599;28;20048;-77
2023/10/15 03:35:55;;;;;;;1.73;1.10;;;9.80;99.90;;;;;;5076655;28;20020;-77
2023/10/15 03:38:32;;;;;;;6.10;1.10;;;9.80;99.90;;;;;;5075430;28;20083;-77
2023/10/15 03:41:21;;;;;;;6.13;1.50;;;9.80;99.90;;;;;;5057440;28;20024;-77
2023/10/15 03:43:48;;;;;;;9.60;1.30;;;9.80;99.90;;;;;;5057732;28;20024;-77
2023/10/15 03:46:19;;;;;;;7.45;1.13;;;9.80;99.90;;;;;;5075553;28;20021;-77
2023/10/15 03:48:49;;;;;;;1.50;0.85;;;9.70;99.90;;;;;;5075181;28;20021;-77
2023/10/15 03:51:20;;;;;;;2.47;1.30;;;9.70;99.90;;;;;;5075500;28;20016;-77
2023/10/15 03:53:49;;;;;;;6.90;2.40;;;9.70;99.90;;;;;;5075210;28;20020;-77
2023/10/15 03:56:17;;;;;;;3.85;1.35;;;9.70;99.90;;;;;;5075123;28;20025;-77
2023/10/15 03:58:43;;;;;;;4.30;1.13;;;9.70;99.90;;;;;;5057743;28;20040;-78
2023/10/15 04:03:35;;;;;;;2.78;2.10;;;9.70;99.90;;;;;;5076332;28;20024;-76
2023/10/15 04:06:05;;;;;;;3.17;1.23;;;9.80;99.90;;;;;;5055214;28;20025;-77
2023/10/15 04:08:31;;;;;;;3.60;1.92;;;9.70;99.90;;;;;;5055391;28;20017;-77
2023/10/15 04:10:58;;;;;;;1.58;0.93;;;9.80;99.90;;;;;;5073396;28;20017;-77
2023/10/15 04:13:26;;;;;;;4.50;1.98;;;9.80;99.90;;;;;;5073430;28;20063;-77
2023/10/15 04:15:54;;;;;;;1.48;1.23;;;9.80;99.90;;;;;;5073217;28;20627;-77
2023/10/15 04:18:22;;;;;;;3.38;0.90;;;9.90;99.90;;;;;;5073157;28;20036;-77
2023/10/15 04:20:49;;;;;;;6.35;1.38;;;9.90;99.90;;;;;;5055149;28;20452;-76
2023/10/15 04:23:30;;;;;;;4.93;0.82;;;9.90;99.90;;;;;;5073058;28;20033;-77
2023/10/15 04:26:00;;;;;;;1.60;0.75;;;9.80;99.90;;;;;;5055103;28;20373;-77
2023/10/15 04:28:27;;;;;;;4.97;1.23;;;9.80;99.90;;;;;;5073254;28;20496;-77
2023/10/15 04:30:53;;;;;;;3.80;1.27;;;9.80;99.90;;;;;;5055288;28;20024;-77
2023/10/15 04:33:20;;;;;;;8.20;1.95;;;9.80;99.90;;;;;;5072789;28;20016;-77
2023/10/15 04:35:49;;;;;;;6.00;1.30;;;9.80;99.90;;;;;;5055096;28;20102;-77
2023/10/15 04:38:30;;;;;;;7.25;1.80;;;9.80;99.90;;;;;;5072656;28;20086;-77
2023/10/15 04:43:25;;;;;;;3.83;1.17;;;9.70;99.90;;;;;;5073812;28;20020;-77
2023/10/15 04:45:51;;;;;;;6.05;1.35;;;9.80;99.90;;;;;;5059271;28;20480;-77
2023/10/15 04:48:26;;;;;;;5.55;1.38;;;9.80;99.90;;;;;;5058725;28;20034;-77
2023/10/15 04:50:51;;;;;;;1.20;1.10;;;9.70;99.90;;;;;;5076794;28;20059;-77
2023/10/15 04:55:48;;;;;;;8.65;1.10;;;9.70;99.90;;;;;;5076958;28;20070;-77
2023/10/15 04:58:15;;;;;;;1.95;0.82;;;9.60;99.90;;;;;;5058251;28;20427;-77
2023/10/15 05:00:50;;;;;;;1.17;0.85;;;9.60;99.90;;;;;;5058588;28;20040;-77
2023/10/15 05:03:16;;;;;;;4.10;1.52;;;9.60;99.90;;;;;;5058684;28;20028;-77
2023/10/15 05:05:42;;;;;;;3.83;1.45;;;9.60;99.90;;;;;;5077517;28;20016;-77
2023/10/15 05:08:11;;;;;;;5.50;1.40;;;9.60;99.90;;;;;;5060250;28;20025;-77
2023/10/15 05:10:38;;;;;;;2.95;1.50;;;9.60;99.90;;;;;;5076756;28;20052;-77
2023/10/15 05:13:04;;;;;;;4.10;1.15;;;9.60;99.90;;;;;;5058527;28;20060;-77
2023/10/15 05:15:30;;;;;;;5.63;1.08;;;9.60;99.90;;;;;;5058574;28;20120;-77
2023/10/15 05:17:56;;;;;;;3.03;1.40;;;9.60;99.90;;;;;;5058487;28;20119;-77
2023/10/15 05:20:21;;;;;;;2.55;1.13;;;9.60;99.90;;;;;;5059006;28;20053;-77
2023/10/15 05:22:48;;;;;;;2.00;1.15;;;9.60;99.90;;;;;;5076718;28;20025;-77
2023/10/15 05:25:20;;;;;;;6.93;1.35;;;9.50;99.90;;;;;;5077092;28;20063;-77
2023/10/15 05:27:52;;;;;;;6.53;1.35;;;9.60;99.90;;;;;;5059953;28;20033;-77
2023/10/15 05:30:18;;;;;;;7.88;1.73;;;9.50;99.90;;;;;;5077707;28;20079;-78
2023/10/15 05:32:44;;;;;;;5.40;1.40;;;9.60;99.90;;;;;;5077447;28;20033;-77
2023/10/15 05:35:10;;;;;;;3.30;1.73;;;9.50;99.90;;;;;;5059134;28;20021;-76
2023/10/15 05:37:39;;;;;;;2.58;1.15;;;9.60;99.90;;;;;;5077065;28;20028;-79
2023/10/15 05:40:06;;;;;;;3.42;1.00;;;9.60;99.90;;;;;;5078643;28;20031;-79
2023/10/15 05:42:32;;;;;;;13.23;1.58;;;9.60;99.90;;;;;;5078371;28;20039;-78
2023/10/15 05:44:58;;;;;;;1.40;1.02;;;9.60;99.90;;;;;;5077713;28;20427;-78
2023/10/15 05:47:24;;;;;;;1.25;1.10;;;9.60;99.90;;;;;;5077201;28;20473;-79
2023/10/15 05:49:49;;;;;;;2.75;1.25;;;9.60;99.90;;;;;;5077174;28;20025;-78
2023/10/15 05:52:15;;;;;;;4.03;1.92;;;9.60;99.90;;;;;;5059152;28;20024;-78
2023/10/15 05:54:41;;;;;;;8.80;1.45;;;9.60;99.90;;;;;;5057554;28;20024;-79
2023/10/15 05:57:07;;;;;;;2.63;1.00;;;9.60;99.90;;;;;;5077222;28;20038;-78
2023/10/15 05:59:36;;;;;;;8.73;2.38;;;9.60;99.90;;;;;;5058978;28;20031;-77
2023/10/15 06:02:04;;;;;;;8.50;1.33;;;9.60;99.90;;;;;;5059313;28;20024;-77
2023/10/15 06:04:33;;;;;;;5.75;1.50;;;9.70;99.90;;;;;;5076375;28;20020;-77
2023/10/15 06:06:58;;;;;;;5.20;2.07;;;9.60;99.90;;;;;;5059216;28;20024;-77
2023/10/15 06:09:24;;;;;;;7.50;1.30;;;9.70;99.90;;;;;;5059170;28;20025;-77
2023/10/15 06:11:50;;;;;;;2.67;1.52;;;9.70;99.90;;;;;;5059518;28;20481;-77
2023/10/15 06:14:16;;;;;;;5.25;1.45;;;9.70;99.90;;;;;;5078261;28;20028;-77
2023/10/15 06:16:41;;;;;;;2.10;1.70;;;9.60;99.90;;;;;;5060466;28;20031;-77
2023/10/15 06:19:11;;;;;;;7.60;1.70;;;9.60;99.90;;;;;;5077487;28;20058;-77
2023/10/15 06:21:36;;;;;;;5.90;1.60;;;9.60;99.90;;;;;;5077809;28;20469;-77
2023/10/15 06:24:02;;;;;;;8.15;2.17;;;9.70;99.90;;;;;;5073315;28;20105;-77
2023/10/15 06:26:28;;;;;;;5.93;1.40;;;9.70;99.90;;;;;;5096568;28;20027;-77
2023/10/15 06:28:54;;;;;;;3.30;2.35;;;9.70;99.90;;;;;;5097140;28;20028;-77
2023/10/15 06:31:20;;;;;;;4.53;2.28;;;9.70;99.90;;;;;;5095715;28;20043;-77
2023/10/15 06:33:45;;;;;;;6.25;1.88;;;9.70;99.90;;;;;;5095692;28;20039;-77
2023/10/15 06:36:11;;;;;;;3.50;1.92;;;9.70;99.90;;;;;;5097948;28;20024;-77
2023/10/15 06:38:37;;;;;;;7.28;2.15;;;9.70;99.90;;;;;;5097216;28;20032;-77
2023/10/15 06:41:04;;;;;;;5.13;1.67;;;9.70;99.90;;;;;;5096734;28;20081;-77
2023/10/15 06:43:31;;;;;;;12.82;3.67;;;9.80;99.90;;;;;;5097352;28;20031;-77
2023/10/15 06:46:07;;;;;;;2.97;1.70;;;10.40;99.90;;;;;;5097255;28;20020;-77
2023/10/15 06:48:33;;;;;;;4.82;2.55;;;9.80;99.90;;;;;;5095392;28;20028;-77
2023/10/15 06:51:04;;;;;;;9.13;3.95;;;9.80;99.90;;;;;;5096995;28;20020;-76
2023/10/15 06:53:34;;;;;;;3.97;1.90;;;9.80;99.90;;;;;;5095734;28;20028;-77
2023/10/15 06:56:00;;;;;;;5.80;3.97;;;9.80;99.90;;;;;;5096686;28;20024;-77
2023/10/15 06:58:28;;;;;;;4.80;2.17;;;9.90;99.90;;;;;;5097741;28;20043;-78
2023/10/15 07:00:58;;;;;;;6.22;2.50;;;9.90;99.90;;;;;;5094304;28;20023;-78
2023/10/15 07:03:24;;;;;;;3.75;1.70;;;9.90;99.90;;;;;;5093011;28;20480;-77
2023/10/15 07:05:50;;;;;;;3.67;1.70;;;10.00;99.90;;;;;;5094190;28;20036;-77
2023/10/15 07:08:16;;;;;;;6.47;1.65;;;10.00;99.90;;;;;;5093857;28;20027;-76
2023/10/15 07:10:42;;;;;;;4.88;1.92;;;10.00;99.90;;;;;;5094621;28;20039;-77
2023/10/15 07:13:10;;;;;;;2.90;2.10;;;10.00;99.90;;;;;;5092991;28;20488;-76
2023/10/15 07:15:37;;;;;;;3.67;1.90;;;10.10;99.90;;;;;;5094158;28;20020;-77
2023/10/15 07:18:03;;;;;;;3.20;1.17;;;10.20;99.90;;;;;;5094012;28;20032;-76
2023/10/15 07:20:29;;;;;;;6.38;2.03;;;10.20;99.90;;;;;;5092556;28;20092;-76
2023/10/15 07:22:56;;;;;;;2.30;1.55;;;10.20;99.90;;;;;;5094031;28;20451;-76
2023/10/15 07:25:29;;;;;;;3.63;2.35;;;10.30;99.90;;;;;;5073988;28;20511;-77
2023/10/15 07:27:57;;;;;;;3.30;1.48;;;10.30;99.90;;;;;;5073589;28;20158;-76
2023/10/15 07:30:25;;;;;;;1.38;0.95;;;10.30;99.90;;;;;;5074026;28;20047;-76
2023/10/15 07:32:53;;;;;;;9.13;2.55;;;10.50;99.90;;;;;;5074168;28;20106;-76
2023/10/15 07:35:21;;;;;;;3.47;2.75;;;10.30;99.90;;;;;;5073786;28;20092;-76
2023/10/15 07:37:50;;;;;;;12.90;2.72;;;10.40;99.90;;;;;;5073223;28;20032;-76
2023/10/15 07:40:18;;;;;;;2.40;1.98;;;10.50;99.90;;;;;;5078749;28;20069;-77
2023/10/15 07:42:48;;;;;;;4.65;1.65;;;10.60;99.90;;;;;;5083093;28;20069;-76
2023/10/15 07:45:15;;;;;;;6.03;1.52;;;10.80;99.90;;;;;;5066141;28;20016;-77
2023/10/15 07:47:41;;;;;;;5.80;2.47;;;10.90;99.90;;;;;;5084892;28;20058;-76
2023/10/15 07:50:17;;;;;;;2.38;1.90;;;10.90;99.90;;;;;;5082774;28;20251;-77
2023/10/15 07:52:44;;;;;;;5.47;2.10;;;11.00;99.90;;;;;;5080775;28;20021;-77
2023/10/15 07:55:13;;;;;;;3.17;1.70;;;11.00;99.90;;;;;;5065952;28;20028;-76
2023/10/15 07:57:39;;;;;;;5.30;1.27;;;11.00;99.90;;;;;;5078191;28;20032;-78
2023/10/15 08:00:14;;;;;;;2.65;1.30;;;11.10;99.90;;;;;;5084374;28;20084;-78
2023/10/15 08:02:45;;;;;;;5.90;3.15;;;11.20;99.90;;;;;;5069375;28;20098;-80
2023/10/15 08:05:12;;;;;;;9.57;2.92;;;11.10;99.90;;;;;;5087777;28;20016;-77
2023/10/15 08:07:38;;;;;;;1.60;1.50;;;11.10;99.90;;;;;;5068706;28;20044;-78
2023/10/15 08:10:04;;;;;;;4.05;2.08;;;11.00;99.90;;;;;;5065617;28;20346;-77
2023/10/15 08:12:31;;;;;;;3.13;1.75;;;11.00;99.90;;;;;;5083579;28;20528;-76
2023/10/15 08:14:57;;;;;;;2.90;1.60;;;11.10;99.90;;;;;;5081351;28;20035;-76
2023/10/15 08:17:24;;;;;;;2.25;1.50;;;11.20;99.90;;;;;;5088226;28;20028;-76
2023/10/15 08:19:51;;;;;;;3.80;1.98;;;11.20;99.90;;;;;;5074117;28;20020;-76
2023/10/15 08:22:17;;;;;;;3.78;1.52;;;11.20;99.90;;;;;;5076188;28;20382;-79
2023/10/15 08:24:43;;;;;;;3.92;1.20;;;11.30;99.90;;;;;;5078919;28;20052;-77
2023/10/15 08:27:09;;;;;;;3.72;1.35;;;11.40;99.90;;;;;;5111184;28;20080;-76
2023/10/15 08:29:35;;;;;;;2.17;1.55;;;11.50;99.90;;;;;;5110606;28;20020;-77
2023/10/15 08:32:01;;;;;;;5.57;1.73;;;11.40;99.90;;;;;;5102428;28;20027;-77
2023/10/15 08:34:28;;;;;;;4.18;1.73;;;11.40;99.90;;;;;;5097800;28;20036;-78
2023/10/15 08:36:53;;;;;;;1.95;1.00;;;11.40;99.90;;;;;;5098277;28;20024;-77
2023/10/15 08:39:19;;;;;;;1.40;1.30;;;11.40;99.90;;;;;;5098594;28;20388;-78
2023/10/15 08:41:46;;;;;;;1.88;1.52;;;11.40;99.90;;;;;;5103144;28;20362;-78
2023/10/15 08:44:18;;;;;;;4.13;1.30;;;11.50;99.90;;;;;;5099946;28;20039;-79
2023/10/15 08:46:45;;;;;;;3.63;1.35;;;11.60;99.90;;;;;;5103197;28;20085;-76
2023/10/15 08:49:12;;;;;;;4.15;2.25;;;11.70;99.90;;;;;;5106926;28;20087;-76
2023/10/15 08:51:39;;;;;;;8.50;1.73;;;11.80;99.90;;;;;;5102212;28;20019;-76
2023/10/15 08:54:07;;;;;;;6.38;2.13;;;12.00;99.90;;;;;;5100437;28;20190;-76
2023/10/15 08:56:33;;;;;;;3.78;1.52;;;12.20;99.90;;;;;;5096638;28;20032;-76
2023/10/15 08:59:00;;;;;;;6.18;1.65;;;12.40;99.90;;;;;;5096741;28;20032;-76
2023/10/15 09:01:26;;;;;;;2.58;1.00;;;12.30;99.90;;;;;;5101908;28;20027;-76
2023/10/15 09:03:52;;;;;;;2.60;1.35;;;12.20;99.90;;;;;;5098862;28;20028;-76
2023/10/15 09:06:21;;;;;;;3.65;1.60;;;12.10;99.90;;;;;;5096321;28;20020;-76
2023/10/15 09:08:49;;;;;;;2.58;1.48;;;12.10;99.90;;;;;;5105492;28;20095;-76
2023/10/15 09:11:16;;;;;;;3.75;1.17;;;12.10;99.90;;;;;;5107430;28;20024;-76
2023/10/15 09:13:42;;;;;;;1.77;1.27;;;12.00;99.90;;;;;;5100188;28;20027;-76
2023/10/15 09:16:09;;;;;;;1.55;1.05;;;12.20;99.90;;;;;;5099190;28;20383;-77
2023/10/15 09:18:35;;;;;;;4.43;1.50;;;12.00;99.90;;;;;;5099806;28;20036;-76
2023/10/15 09:21:04;;;;;;;2.90;1.38;;;12.10;99.90;;;;;;5098600;28;20020;-76
2023/10/15 09:23:37;;;;;;;1.67;1.43;;;12.30;99.90;;;;;;5097933;28;20419;-76
2023/10/15 09:26:12;;;;;;;2.53;1.20;;;12.50;99.90;;;;;;5061796;28;20024;-76
2023/10/15 09:28:38;;;;;;;3.20;1.77;;;12.60;99.90;;;;;;5081594;28;20070;-77
2023/10/15 09:31:06;;;;;;;3.50;0.93;;;12.50;99.90;;;;;;5062460;28;20017;-78
2023/10/15 09:33:32;;;;;;;2.67;1.25;;;12.50;99.90;;;;;;5085008;28;20043;-76
2023/10/15 09:35:59;;;;;;;1.73;0.90;;;12.50;99.90;;;;;;5077368;28;20099;-76
2023/10/15 09:38:25;;;;;;;3.08;1.20;;;12.70;99.90;;;;;;5079511;28;20029;-77
2023/10/15 09:40:55;;;;;;;1.52;1.42;;;12.60;99.90;;;;;;5080001;28;20021;-76
2023/10/15 09:43:28;;;;;;;2.20;1.08;;;12.80;99.90;;;;;;5079460;28;20017;-77
2023/10/15 09:45:54;;;;;;;2.05;1.02;;;12.80;99.90;;;;;;5085429;28;20035;-76
2023/10/15 09:48:27;;;;;;;1.30;1.17;;;12.70;99.90;;;;;;5062968;28;20029;-76
2023/10/15 09:50:59;;;;;;;3.10;0.90;;;12.90;99.90;;;;;;5080393;28;20070;-76
2023/10/15 09:53:29;;;;;;;2.42;1.40;;;12.80;99.90;;;;;;5086299;28;20028;-76
2023/10/15 09:55:59;;;;;;;1.23;0.80;;;12.90;99.90;;;;;;5068019;28;20028;-78
2023/10/15 09:58:25;;;;;;;;;;;13.00;99.90;;;;;;5086654;28;20024;-77
2023/10/15 10:01:08;;;;;;;3.30;0.98;;;13.10;99.90;;;;;;5066440;28;19901;-76
2023/10/15 10:03:49;;;;;;;2.83;0.98;;;13.10;99.90;;;;;;5082439;28;20023;-78
2023/10/15 10:06:56;;;;;;;1.63;1.40;;;13.10;99.90;;;;;;5085850;28;20020;-79
2023/10/15 10:09:51;;;;;;;1.38;1.00;;;12.90;99.90;;;;;;4990847;28;20174;-79
2023/10/15 10:12:53;;;;;;;3.53;1.25;;;12.50;99.90;;;;;;5083618;28;20017;-76
2023/10/15 10:15:42;;;;;;;1.58;1.15;;;12.40;99.90;;;;;;5080961;28;20124;-76
2023/10/15 10:18:08;;;;;;;3.72;1.30;;;12.50;99.90;;;;;;5084010;28;20028;-78
2023/10/15 10:20:37;;;;;;;2.58;0.93;;;12.60;99.90;;;;;;5067699;28;20320;-79
2023/10/15 10:23:05;;;;;;;3.35;1.20;;;12.70;99.90;;;;;;5085524;28;20200;-78
2023/10/15 10:25:42;;;;;;;8.98;1.08;;;12.70;99.90;;;;;;5085254;28;20024;-77
2023/10/15 10:28:13;;;;;;;1.80;1.48;;;12.90;99.90;;;;;;5067675;28;20088;-77
2023/10/15 10:30:51;;;;;;;1.95;1.15;;;12.70;99.90;;;;;;5067691;28;20288;-77
2023/10/15 10:33:45;;;;;;;6.18;1.63;;;12.60;99.90;;;;;;5085385;28;20017;-77
2023/10/15 10:36:27;;;;;;;1.90;0.85;;;12.60;99.90;;;;;;5082100;28;20036;-77
2023/10/15 10:39:10;;;;;;;2.80;0.73;;;12.80;99.90;;;;;;5079643;28;20039;-77
2023/10/15 10:42:04;;;;;;;0.85;0.70;;;13.10;99.90;;;;;;5064726;28;20092;-78
2023/10/15 10:44:30;;;;;;;0.73;0.55;;;13.20;99.90;;;;;;5060015;28;20056;-77
2023/10/15 10:46:56;;;;;;;0.75;0.55;;;13.30;99.90;;;;;;5065405;28;20340;-77
2023/10/15 10:49:37;;;;;;;3.80;1.20;;;13.60;99.90;;;;;;5066732;28;20130;-80
2023/10/15 10:52:04;;;;;;;1.38;0.50;;;13.70;96.70;;;;;;5065389;28;20051;-78
2023/10/15 10:54:30;;;;;;;1.42;0.50;;;13.50;96.40;;;;;;5065819;28;20025;-78
2023/10/15 10:56:58;;;;;;;3.38;1.02;;;13.40;96.20;;;;;;5063266;28;20024;-78
2023/10/15 10:59:24;;;;;;;0.75;0.70;;;13.20;94.70;;;;;;5064129;28;20075;-78
2023/10/15 11:01:50;;;;;;;2.67;0.65;;;13.20;96.50;;;;;;5066547;28;20304;-78
2023/10/15 11:04:18;;;;;;;2.00;0.50;;;13.10;98.20;;;;;;5063193;28;20088;-78
2023/10/15 11:06:51;;;;;;;3.72;0.93;;;13.10;95.10;;;;;;5081803;28;20021;-78
2023/10/15 11:09:19;;;;;;;3.45;0.55;;;13.00;94.60;;;;;;5063172;28;20020;-78
2023/10/15 11:11:49;;;;;;;1.90;0.65;;;12.90;94.00;;;;;;5085015;28;20239;-77
2023/10/15 11:14:16;;;;;;;2.65;1.27;;;13.00;93.60;;;;;;5064177;28;20063;-78
2023/10/15 11:16:45;;;;;;;1.23;0.68;;;13.20;94.00;;;;;;5084110;28;20084;-78
2023/10/15 11:19:15;;;;;;;1.77;0.50;;;13.40;94.00;;;;;;5083329;28;20031;-77
2023/10/15 11:21:42;;;;;;;0.90;0.60;;;13.70;94.50;;;;;;5083229;28;20084;-77
2023/10/15 11:24:09;;;;;;;2.28;0.95;;;13.90;93.10;;;;;;5083298;28;20319;-78
2023/10/15 11:26:41;;;;;;;2.05;0.77;;;14.00;93.30;;;;;;5061469;28;20021;-77
2023/10/15 11:29:20;;;;;;;1.75;0.38;;;13.90;93.50;;;;;;5081621;28;20130;-77
2023/10/15 11:31:56;;;;;;;1.08;0.52;;;13.90;92.60;;;;;;5061672;28;20052;-77
2023/10/15 11:34:24;;;;;;;0.57;0.40;;;14.10;92.80;;;;;;5067712;28;20087;-77
2023/10/15 11:36:52;;;;;;;4.53;0.77;;;14.60;90.90;;;;;;5086240;28;20032;-78
2023/10/15 11:39:22;;;;;;;0.40;0.40;;;14.90;90.60;;;;;;5090686;28;20020;-77
2023/10/15 11:41:57;;;;;;;2.95;0.77;;;15.30;89.90;;;;;;5091550;28;20028;-79
2023/10/15 11:44:30;;;;;;;2.20;0.75;;;15.60;88.00;;;;;;5090127;28;20019;-79
2023/10/15 11:46:57;;;;;;;0.60;0.52;;;15.40;88.10;;;;;;5073320;28;20039;-79
2023/10/15 11:49:25;;;;;;;2.65;0.40;;;15.50;87.30;;;;;;5073877;28;20017;-77
2023/10/15 11:51:58;;;;;;;1.75;0.73;;;15.30;86.80;;;;;;5091794;28;20074;-78
2023/10/15 11:54:30;;;;;;;5.10;0.60;;;15.40;90.40;;;;;;5091363;28;20035;-79
2023/10/15 11:56:59;;;;;;;1.77;0.63;;;15.80;85.50;;;;;;5091748;28;20031;-77
2023/10/15 11:59:26;;;;;;;1.50;0.60;;;15.70;86.00;;;;;;5092091;28;20330;-77
2023/10/15 12:01:52;;;;;;;2.15;0.73;;;15.60;85.20;;;;;;5087847;28;20051;-77
2023/10/15 12:04:23;;;;;;;0.45;0.25;;;15.50;78.00;;;;;;5082320;28;20028;-77
2023/10/15 12:06:49;;;;;;;0.75;0.43;;;15.50;80.40;;;;;;5083074;28;20076;-77
2023/10/15 12:09:24;;;;;;;2.28;0.55;;;15.30;79.90;;;;;;5064294;28;20035;-78
2023/10/15 12:11:53;;;;;;;0.70;0.57;;;15.30;78.40;;;;;;5064749;28;20047;-78
2023/10/15 12:14:18;;;;;;;0.70;0.70;;;14.80;81.20;;;;;;5065393;28;20078;-75
2023/10/15 12:16:44;;;;;;;2.45;0.60;;;13.70;89.50;;;;;;5065120;28;20024;-78
2023/10/15 12:19:10;;;;;;;1.55;0.70;;;13.40;91.00;;;;;;5066810;28;20028;-79
2023/10/15 12:21:37;;;;;;;0.60;0.52;;;13.00;92.00;;;;;;5067189;28;20025;-79
2023/10/15 12:24:13;;;;;;;2.15;0.70;;;12.80;91.70;;;;;;5078111;28;20044;-75
2023/10/15 12:26:39;;;;;;;0.73;0.68;;;12.70;93.10;;;;;;5102932;28;20035;-79
2023/10/15 12:29:05;;;;;;;2.15;0.50;;;12.40;94.10;;;;;;5103382;28;20059;-79
2023/10/15 12:31:31;;;;;;;1.40;0.68;;;12.40;95.50;;;;;;5103255;28;20343;-78
2023/10/15 12:34:00;;;;;;;0.75;0.50;;;12.30;94.40;;;;;;5104094;28;20028;-78
2023/10/15 12:36:28;;;;;;;1.17;0.50;;;12.30;94.20;;;;;;5102515;28;20091;-78
2023/10/15 12:38:54;;;;;;;0.40;0.40;;;12.30;93.60;;;;;;5102158;28;20043;-78
2023/10/15 12:41:21;;;;;;;0.75;0.50;;;12.30;92.80;;;;;;5103728;28;20031;-78
2023/10/15 12:43:48;;;;;;;1.60;0.73;;;12.50;91.80;;;;;;5099772;28;20031;-77
2023/10/15 12:46:13;;;;;;;1.63;0.40;;;12.50;90.80;;;;;;5105970;28;20042;-78
2023/10/15 12:48:39;;;;;;;2.22;0.63;;;12.50;90.70;;;;;;5106117;28;20316;-79
2023/10/15 12:51:04;;;;;;;0.38;0.30;;;12.80;91.50;;;;;;5103140;28;20016;-78
2023/10/15 12:53:31;;;;;;;0.55;0.40;;;13.10;91.00;;;;;;5104179;28;20016;-78
2023/10/15 12:55:57;;;;;;;1.73;0.40;;;13.20;91.00;;;;;;5103111;28;20304;-76
2023/10/15 12:58:23;;;;;;;0.93;0.50;;;13.60;90.60;;;;;;5102727;28;20027;-78
2023/10/15 13:00:52;;;;;;;0.95;0.40;;;13.60;90.00;;;;;;5104072;28;20019;-77
2023/10/15 13:03:18;;;;;;;0.90;0.40;;;14.90;87.80;;;;;;5103808;28;20076;-78
2023/10/15 13:05:44;;;;;;;0.90;0.47;;;16.80;82.80;;;;;;5105331;28;20019;-76
2023/10/15 13:08:10;;;;;;;2.17;0.52;;;18.50;78.90;;;;;;5106813;28;20052;-77
2023/10/15 13:10:36;;;;;;;3.03;0.40;;;19.30;75.80;;;;;;5106877;28;20019;-78
2023/10/15 13:13:02;;;;;;;0.70;0.70;;;18.40;73.90;;;;;;5107263;28;20255;-78
2023/10/15 13:15:27;;;;;;;2.22;1.08;;;16.60;76.10;;;;;;5106213;28;20023;-77
2023/10/15 13:17:56;;;;;;;2.85;0.60;;;16.80;77.20;;;;;;5106913;28;20042;-78
2023/10/15 13:20:23;;;;;;;1.75;0.30;;;17.90;78.20;;;;;;5104459;28;20267;-77